createdAt,value
2022-11-29T04:44:10.430Z,0.88
2022-11-29T04:47:32.506Z,0.83
2022-11-29T04:51:00.585Z,0.85
2022-11-29T04:54:24.112Z,0.87
2022-11-29T04:57:44.845Z,0.88
2022-11-29T05:01:04.062Z,0.90
2022-11-29T05:04:26.442Z,0.90
2022-11-29T05:08:01.584Z,0.88
2022-11-29T05:11:26.854Z,0.91
2022-11-29T05:15:05.454Z,0.94
2022-11-29T05:18:22.035Z,0.95
2022-11-29T05:21:36.970Z,1.00
2022-11-29T05:24:51.460Z,1.00
2022-11-29T05:28:09.853Z,1.01
2022-11-29T05:31:32.292Z,0.97
2022-11-29T05:34:57.156Z,0.98
2022-11-29T05:38:27.342Z,0.96
2022-11-29T05:41:38.921Z,0.99
2022-11-29T05:44:50.499Z,0.93
2022-11-29T05:48:10.474Z,0.98
2022-11-29T05:51:39.810Z,0.98
2022-11-29T05:54:47.787Z,0.88
2022-11-29T05:57:53.341Z,0.87
2022-11-29T06:01:07.090Z,0.93
2022-11-29T06:04:21.733Z,0.96
2022-11-29T06:07:29.093Z,0.92
2022-11-29T06:10:36.530Z,0.90
2022-11-29T06:14:05.613Z,0.85
2022-11-29T06:17:42.562Z,0.88
2022-11-29T06:21:18.982Z,0.93
2022-11-29T06:24:43.115Z,0.97
2022-11-29T06:28:16.218Z,0.99
2022-11-29T06:31:38.513Z,1.02
2022-11-29T06:34:52.869Z,1.01
2022-11-29T06:37:58.357Z,1.05
2022-11-29T06:41:02.355Z,1.05
2022-11-29T06:44:06.385Z,1.12
2022-11-29T06:47:08.980Z,1.12
2022-11-29T06:50:17.626Z,1.13
2022-11-29T06:53:30.689Z,1.20
2022-11-29T06:56:53.586Z,1.28
2022-11-29T07:00:03.718Z,1.26
2022-11-29T07:03:23.400Z,1.27
2022-11-29T07:06:28.085Z,1.44
2022-11-29T07:09:35.728Z,1.54
2022-11-29T07:12:38.627Z,1.46
2022-11-29T07:15:50.129Z,1.49
2022-11-29T07:19:14.757Z,1.53
2022-11-29T07:22:36.634Z,1.62
2022-11-29T07:26:29.068Z,1.60
2022-11-29T07:30:10.722Z,1.63
2022-11-29T07:33:48.423Z,1.56
2022-11-29T07:37:03.339Z,1.63
2022-11-29T07:40:15.116Z,1.68
2022-11-29T07:43:42.454Z,1.74
2022-11-29T07:46:45.070Z,1.82
2022-11-29T07:49:48.446Z,1.85
2022-11-29T07:52:51.102Z,1.86
2022-11-29T07:55:54.099Z,1.90
2022-11-29T07:58:56.999Z,1.93
2022-11-29T08:01:59.906Z,2.05
2022-11-29T08:05:04.049Z,2.10
2022-11-29T08:08:06.871Z,2.13
2022-11-29T08:11:11.740Z,2.14
2022-11-29T08:14:14.262Z,1.99
2022-11-29T08:17:18.601Z,1.98
2022-11-29T08:20:21.132Z,2.00
2022-11-29T08:23:23.863Z,1.97
2022-11-29T08:26:31.184Z,2.15
2022-11-29T08:29:34.544Z,2.16
2022-11-29T08:32:37.043Z,2.26
2022-11-29T08:35:40.027Z,2.17
2022-11-29T08:38:42.670Z,2.16
2022-11-29T08:41:45.438Z,2.09
2022-11-29T08:44:48.189Z,2.12
2022-11-29T08:47:50.989Z,2.22
2022-11-29T08:50:56.223Z,2.23
2022-11-29T08:54:01.098Z,2.35
2022-11-29T08:57:38.017Z,2.38
2022-11-29T09:00:27.155Z,2.37
2022-11-29T09:03:48.534Z,2.39
2022-11-29T09:06:51.515Z,2.44
2022-11-29T09:09:54.102Z,2.53
2022-11-29T09:12:56.926Z,2.53
2022-11-29T09:15:59.478Z,2.58
2022-11-29T09:19:03.151Z,2.62
2022-11-29T09:22:05.683Z,2.66
2022-11-29T09:25:08.846Z,2.91
2022-11-29T09:28:12.619Z,3.01
2022-11-29T09:31:16.501Z,2.93
2022-11-29T09:34:19.202Z,2.93
2022-11-29T09:37:21.996Z,2.84
2022-11-29T09:40:52.916Z,2.88
2022-11-29T09:44:00.744Z,2.83
2022-11-29T09:47:18.675Z,2.81
2022-11-29T09:50:25.739Z,2.92
2022-11-29T09:53:39.690Z,2.66
2022-11-29T09:56:46.479Z,2.81
2022-11-29T09:59:53.354Z,2.68
2022-11-29T10:03:16.018Z,2.79
2022-11-29T10:06:30.829Z,3.05
2022-11-29T10:09:48.978Z,3.11
2022-11-29T10:13:04.980Z,3.33
2022-11-29T10:16:33.888Z,3.41
2022-11-29T10:19:46.074Z,3.64
2022-11-29T10:22:57.623Z,3.65
2022-11-29T10:26:00.527Z,3.48
2022-11-29T10:29:03.221Z,3.48
2022-11-29T10:32:13.942Z,3.68
2022-11-29T10:35:20.050Z,3.75
2022-11-29T10:38:32.086Z,3.85
2022-11-29T10:41:35.695Z,3.97
2022-11-29T10:44:38.477Z,3.94
2022-11-29T10:47:40.989Z,3.92
2022-11-29T10:50:45.970Z,3.99
2022-11-29T10:53:52.271Z,3.90
2022-11-29T10:56:58.917Z,3.76
2022-11-29T11:00:06.887Z,3.78
2022-11-29T11:03:27.533Z,3.73
2022-11-29T11:06:46.740Z,3.64
2022-11-29T11:09:53.442Z,3.61
2022-11-29T11:13:18.737Z,3.68
2022-11-29T11:16:24.567Z,3.67
2022-11-29T11:19:32.805Z,3.82
2022-11-29T11:22:39.865Z,3.73
2022-11-29T11:25:42.474Z,3.63
2022-11-29T11:28:51.643Z,3.79
2022-11-29T11:31:57.399Z,3.90
2022-11-29T11:35:02.411Z,4.01
2022-11-29T11:38:04.886Z,3.99
2022-11-29T11:41:57.810Z,3.98
2022-11-29T11:45:01.429Z,3.72
2022-11-29T11:48:13.656Z,3.33
2022-11-29T11:51:24.675Z,3.20
2022-11-29T11:54:28.853Z,3.17
2022-11-29T11:57:31.876Z,3.28
2022-11-29T12:01:03.013Z,3.25
2022-11-29T12:04:18.906Z,3.24
2022-11-29T12:08:06.219Z,3.25
2022-11-29T12:11:07.587Z,3.32
2022-11-29T12:14:22.333Z,3.03
2022-11-29T12:17:32.963Z,2.91
2022-11-29T12:20:41.315Z,2.76
2022-11-29T12:24:00.043Z,2.55
2022-11-29T12:27:05.550Z,2.60
2022-11-29T12:30:15.387Z,2.73
2022-11-29T12:33:32.443Z,2.73
2022-11-29T12:36:38.235Z,2.74
2022-11-29T12:39:57.378Z,2.88
2022-11-29T12:43:41.878Z,2.95
2022-11-29T12:47:34.615Z,3.01
2022-11-29T12:50:44.648Z,3.10
2022-11-29T12:54:10.475Z,3.10
2022-11-29T12:57:46.377Z,3.05
2022-11-29T13:01:30.625Z,3.17
2022-11-29T13:04:56.519Z,3.44
2022-11-29T13:08:17.191Z,3.49
2022-11-29T13:11:33.047Z,3.70
2022-11-29T13:14:44.448Z,3.69
2022-11-29T13:18:00.914Z,3.62
2022-11-29T13:21:06.095Z,3.43
2022-11-29T13:24:32.474Z,3.53
2022-11-29T13:27:40.288Z,3.69
2022-11-29T13:30:43.267Z,3.47
2022-11-29T13:34:17.384Z,3.45
2022-11-29T13:37:39.032Z,3.46
2022-11-29T13:40:56.855Z,3.56
2022-11-29T13:44:41.286Z,3.57
2022-11-29T13:47:49.942Z,3.45
2022-11-29T13:50:52.699Z,3.37
2022-11-29T13:53:58.352Z,3.17
2022-11-29T13:57:04.156Z,2.99
2022-11-29T14:00:07.671Z,3.01
2022-11-29T14:03:19.584Z,3.04
2022-11-29T14:06:33.906Z,2.91
2022-11-29T14:10:04.957Z,2.92
2022-11-29T14:13:14.831Z,3.03
2022-11-29T14:16:43.835Z,2.97
2022-11-29T14:19:46.320Z,2.99
2022-11-29T14:23:04.353Z,3.11
2022-11-29T14:26:06.954Z,2.97
2022-11-29T14:29:50.922Z,2.99
2022-11-29T14:33:00.793Z,2.97
2022-11-29T14:36:12.238Z,2.99
2022-11-29T14:39:46.973Z,2.99
2022-11-29T14:42:50.982Z,2.88
2022-11-29T14:46:11.747Z,2.75
2022-11-29T14:49:22.421Z,2.90
2022-11-29T14:52:51.282Z,2.76
2022-11-29T14:56:28.862Z,2.87
2022-11-29T14:59:51.610Z,2.82
2022-11-29T15:03:15.510Z,2.70
2022-11-29T15:06:24.164Z,2.56
2022-11-29T15:09:28.819Z,2.76
2022-11-29T15:12:37.055Z,2.67
2022-11-29T15:15:52.097Z,2.68
2022-11-29T15:19:13.266Z,2.73
2022-11-29T15:22:32.940Z,2.74
2022-11-29T15:25:36.464Z,2.73
2022-11-29T15:28:39.358Z,2.76
2022-11-29T15:31:43.308Z,2.79
2022-11-29T15:34:52.034Z,2.86
2022-11-29T15:37:55.215Z,2.85
2022-11-29T15:40:58.537Z,2.79
2022-11-29T15:44:03.801Z,2.82
2022-11-29T15:47:25.346Z,2.80
2022-11-29T15:50:32.639Z,2.84
2022-11-29T15:53:43.707Z,2.74
2022-11-29T15:56:51.930Z,2.78
2022-11-29T16:00:02.209Z,2.71
2022-11-29T16:03:18.344Z,2.70
2022-11-29T16:06:27.910Z,2.71
2022-11-29T16:09:42.468Z,2.69
2022-11-29T16:13:02.523Z,2.64
2022-11-29T16:16:10.561Z,2.67
2022-11-29T16:19:21.140Z,2.73
2022-11-29T16:22:24.649Z,2.72
2022-11-29T16:25:27.949Z,2.68
2022-11-29T16:28:40.690Z,2.70
2022-11-29T16:31:43.714Z,2.76
2022-11-29T16:34:46.579Z,2.76
2022-11-29T16:37:49.741Z,2.75
2022-11-29T16:41:07.854Z,2.77
2022-11-29T16:44:49.070Z,2.78
2022-11-29T16:47:58.071Z,2.78
2022-11-29T16:51:10.172Z,2.79
2022-11-29T16:54:27.788Z,2.76
2022-11-29T16:57:31.571Z,2.77
2022-11-29T17:00:34.412Z,2.72
2022-11-29T17:03:37.229Z,2.70
